Weather at Gwalior Airport

Public forecast

Using degrees Celsius for public forecast. Weather courtesy of forecast.io.

Current aviation weather report (METAR) for Gwalior Airport

Report is more than 6 hours old.

2024/07/13 07:30 (retrieved 22 hours ago)

VIGR 130730Z 31011KT 6000 TS SCT020 FEW025CB BKN090 35/29 Q0999 TEMPO 27015G25KT 3000 TSRA

Aviation forecast (TAF) for Gwalior Airport

Forecast is more than 12 hours old.

2024/07/13 12:00 (retrieved 18 hours ago)

TAF VIGR 130930Z 1312/1324 28007KT 6000 SCT020 FEW030CB BKN090 TEMPO 1312/1314 26010KT 4000 TSRABR SCT015 SCT025 FEW030CB BKN080 BECMG 1320/1322 16007KT 5000 RABR SCT015 SCT025 FEW030CB BKN080